createdAt,value
2023-01-09T00:00:22.775Z,8.27
2023-01-09T00:01:34.321Z,8.28
2023-01-09T00:02:37.071Z,8.27
2023-01-09T00:03:38.936Z,8.20
2023-01-09T00:04:41.529Z,8.24
2023-01-09T00:05:43.276Z,8.26
2023-01-09T00:06:50.377Z,8.23
2023-01-09T00:07:52.288Z,8.25
2023-01-09T00:08:54.216Z,8.28
2023-01-09T00:09:55.875Z,8.28
2023-01-09T00:10:57.593Z,8.26
2023-01-09T00:11:59.410Z,8.29
2023-01-09T00:13:01.171Z,8.28
2023-01-09T00:14:04.095Z,8.24
2023-01-09T00:15:06.660Z,8.37
2023-01-09T00:16:09.327Z,8.39
2023-01-09T00:17:10.996Z,8.36
2023-01-09T00:18:12.856Z,8.32
2023-01-09T00:19:14.669Z,8.28
2023-01-09T00:20:18.351Z,8.29
2023-01-09T00:21:20.711Z,8.25
2023-01-09T00:22:22.400Z,8.16
2023-01-09T00:23:24.084Z,8.28
2023-01-09T00:24:25.976Z,8.27
2023-01-09T00:25:27.828Z,8.29
2023-01-09T00:26:29.576Z,8.36
2023-01-09T00:27:32.977Z,8.41
2023-01-09T00:28:35.355Z,8.35
2023-01-09T00:29:36.989Z,8.31
2023-01-09T00:30:39.219Z,8.40
2023-01-09T00:31:41.042Z,8.40
2023-01-09T00:32:42.683Z,8.41
2023-01-09T00:33:59.395Z,8.36
2023-01-09T00:35:01.223Z,8.29
2023-01-09T00:36:03.400Z,8.29
2023-01-09T00:37:11.866Z,8.29
2023-01-09T00:38:13.678Z,8.25
2023-01-09T00:39:15.462Z,8.24
2023-01-09T00:40:18.772Z,8.24
2023-01-09T00:41:27.163Z,8.20
2023-01-09T00:42:32.128Z,8.17
2023-01-09T00:43:38.987Z,8.18
2023-01-09T00:44:47.249Z,8.24
2023-01-09T00:45:49.202Z,8.20
2023-01-09T00:46:59.297Z,8.20
2023-01-09T00:48:10.253Z,8.19
2023-01-09T00:49:13.727Z,8.15
2023-01-09T00:50:19.433Z,8.22
2023-01-09T00:51:21.702Z,8.21
2023-01-09T00:52:23.933Z,8.21
2023-01-09T00:53:32.931Z,8.16
2023-01-09T00:54:35.326Z,8.14
2023-01-09T00:55:38.619Z,8.11
2023-01-09T00:56:40.509Z,8.08
2023-01-09T00:57:42.311Z,8.10
2023-01-09T00:58:44.849Z,8.11
2023-01-09T00:59:46.626Z,8.11
2023-01-09T01:00:48.397Z,8.07
2023-01-09T01:01:50.171Z,8.04
2023-01-09T01:02:53.281Z,8.19
2023-01-09T01:03:55.558Z,8.19
2023-01-09T01:05:16.013Z,8.13
2023-01-09T01:06:36.739Z,8.08
2023-01-09T01:07:38.545Z,8.05
2023-01-09T01:08:40.674Z,8.16
2023-01-09T01:09:42.353Z,8.13
2023-01-09T01:10:45.173Z,8.09
2023-01-09T01:11:46.802Z,8.06
2023-01-09T01:12:50.625Z,8.08
2023-01-09T01:13:53.039Z,8.20
2023-01-09T01:14:54.742Z,8.21
2023-01-09T01:15:56.816Z,8.17
2023-01-09T01:16:58.518Z,8.17
2023-01-09T01:18:01.018Z,8.15
2023-01-09T01:19:02.823Z,8.14
2023-01-09T01:20:07.014Z,8.13
2023-01-09T01:21:10.758Z,8.13
2023-01-09T01:22:12.392Z,8.16
2023-01-09T01:23:14.422Z,8.27
2023-01-09T01:24:19.791Z,8.33
2023-01-09T01:25:22.856Z,8.48
2023-01-09T01:26:24.666Z,8.39
2023-01-09T01:27:28.654Z,8.36
2023-01-09T01:28:30.562Z,8.51
2023-01-09T01:29:32.456Z,8.47
2023-01-09T01:30:39.600Z,8.41
2023-01-09T01:31:41.375Z,8.44
2023-01-09T01:32:43.195Z,8.50
2023-01-09T01:33:45.348Z,8.49
2023-01-09T01:34:47.890Z,8.43
2023-01-09T01:35:49.894Z,8.36
2023-01-09T01:36:51.564Z,8.36
2023-01-09T01:37:53.472Z,8.36
2023-01-09T01:38:55.205Z,8.39
2023-01-09T01:39:57.526Z,8.41
2023-01-09T01:41:00.645Z,8.36
2023-01-09T01:42:04.680Z,8.32
2023-01-09T01:43:06.687Z,8.28
2023-01-09T01:44:47.303Z,8.27
2023-01-09T01:45:49.034Z,8.26
2023-01-09T01:46:53.814Z,8.29
2023-01-09T01:48:08.675Z,8.26
2023-01-09T01:49:16.682Z,8.34
2023-01-09T01:50:32.874Z,8.30
2023-01-09T01:51:39.734Z,8.28
2023-01-09T01:52:45.336Z,8.24
2023-01-09T01:53:52.887Z,8.21
2023-01-09T01:54:55.285Z,8.17
2023-01-09T01:56:06.062Z,8.14
2023-01-09T01:57:07.844Z,8.14
2023-01-09T01:58:11.603Z,8.10
2023-01-09T01:59:19.582Z,8.10
2023-01-09T02:00:27.406Z,8.05
2023-01-09T02:01:33.078Z,8.06
2023-01-09T02:02:35.000Z,8.06
2023-01-09T02:03:39.777Z,8.06
2023-01-09T02:04:43.067Z,8.05
2023-01-09T02:05:45.360Z,8.03
2023-01-09T02:06:50.942Z,7.98
2023-01-09T02:07:52.645Z,7.90
2023-01-09T02:08:54.892Z,7.98
2023-01-09T02:09:56.931Z,7.98
2023-01-09T02:10:59.196Z,8.02
2023-01-09T02:12:01.604Z,8.11
2023-01-09T02:13:04.860Z,8.10
2023-01-09T02:14:06.739Z,8.12
2023-01-09T02:15:12.673Z,8.21
2023-01-09T02:16:28.912Z,8.30
2023-01-09T02:17:30.873Z,8.29
2023-01-09T02:18:54.119Z,8.23
2023-01-09T02:20:08.104Z,8.32
2023-01-09T02:21:31.171Z,8.29
2023-01-09T02:22:57.794Z,8.26
2023-01-09T02:24:36.691Z,8.24
2023-01-09T02:25:55.996Z,8.26
2023-01-09T02:27:16.607Z,8.26
2023-01-09T02:28:37.373Z,8.26
2023-01-09T02:29:53.657Z,8.25
2023-01-09T02:31:10.807Z,8.23
2023-01-09T02:32:47.784Z,8.24
2023-01-09T02:34:00.242Z,8.23
2023-01-09T02:35:25.163Z,8.22
2023-01-09T02:36:27.013Z,8.18
2023-01-09T02:37:34.437Z,8.17
2023-01-09T02:38:48.362Z,8.16
2023-01-09T02:40:21.198Z,8.19
2023-01-09T02:41:23.431Z,8.18
2023-01-09T02:42:27.212Z,8.21
2023-01-09T02:43:31.067Z,8.23
2023-01-09T02:44:36.743Z,8.19
2023-01-09T02:45:38.444Z,8.20
2023-01-09T02:46:40.535Z,8.22
2023-01-09T02:47:45.546Z,8.19
2023-01-09T02:48:52.456Z,8.18
2023-01-09T02:49:58.036Z,8.24
2023-01-09T02:51:15.996Z,8.21
2023-01-09T02:52:20.476Z,8.23
2023-01-09T02:53:42.141Z,8.20
2023-01-09T02:55:03.989Z,8.10
2023-01-09T02:56:24.373Z,8.12
2023-01-09T02:57:48.156Z,7.97
2023-01-09T02:59:00.617Z,7.79
2023-01-09T03:00:24.935Z,7.68
2023-01-09T03:01:39.088Z,7.57
2023-01-09T03:02:47.121Z,7.46
2023-01-09T03:04:07.989Z,7.42
2023-01-09T03:05:30.851Z,7.36
2023-01-09T03:06:52.378Z,7.30
2023-01-09T03:08:04.798Z,7.25
2023-01-09T03:09:23.146Z,7.18
2023-01-09T03:10:33.734Z,7.15
2023-01-09T03:11:51.561Z,7.15
2023-01-09T03:12:54.819Z,7.07
2023-01-09T03:14:03.618Z,7.06
2023-01-09T03:15:08.817Z,6.95
2023-01-09T03:16:15.781Z,6.97
2023-01-09T03:17:32.337Z,6.94
2023-01-09T03:18:36.358Z,6.92
2023-01-09T03:19:38.479Z,6.85
2023-01-09T03:20:41.268Z,6.78
2023-01-09T03:21:44.977Z,6.75
2023-01-09T03:23:07.776Z,6.73
2023-01-09T03:24:09.827Z,6.70
2023-01-09T03:25:13.060Z,6.71
2023-01-09T03:26:15.201Z,6.61
2023-01-09T03:27:16.952Z,6.59
2023-01-09T03:28:29.410Z,6.56
2023-01-09T03:29:32.038Z,6.54
2023-01-09T03:30:35.683Z,6.50
2023-01-09T03:31:37.545Z,6.47
2023-01-09T03:32:39.585Z,6.43
2023-01-09T03:33:42.065Z,6.41
2023-01-09T03:34:44.030Z,6.38
2023-01-09T03:35:45.719Z,6.37
2023-01-09T03:36:47.485Z,6.38
2023-01-09T03:37:49.486Z,6.38
2023-01-09T03:38:53.246Z,6.34
2023-01-09T03:39:55.195Z,6.30
2023-01-09T03:40:57.097Z,6.28
2023-01-09T03:41:58.762Z,6.23
2023-01-09T03:43:00.529Z,6.29
2023-01-09T03:44:02.319Z,6.34
2023-01-09T03:45:05.128Z,6.28
2023-01-09T03:46:06.966Z,6.29
2023-01-09T03:47:08.828Z,6.27
2023-01-09T03:48:10.567Z,6.30
2023-01-09T03:49:13.884Z,6.30
2023-01-09T03:50:16.146Z,6.30
2023-01-09T03:51:18.127Z,6.29
2023-01-09T03:52:19.828Z,6.28
2023-01-09T03:53:23.872Z,6.29
2023-01-09T03:54:25.972Z,6.28
2023-01-09T03:55:28.155Z,6.28
2023-01-09T03:56:29.837Z,6.32
2023-01-09T03:57:31.623Z,6.32
2023-01-09T03:58:33.824Z,6.33
2023-01-09T03:59:35.893Z,6.36
2023-01-09T04:00:39.190Z,6.35
2023-01-09T04:01:41.335Z,6.39
2023-01-09T04:02:43.600Z,6.38
2023-01-09T04:03:45.662Z,6.40
2023-01-09T04:04:47.732Z,6.40
2023-01-09T04:05:50.279Z,6.38
2023-01-09T04:06:52.226Z,6.38
2023-01-09T04:07:54.324Z,6.36
2023-01-09T04:08:56.085Z,6.34
2023-01-09T04:09:58.767Z,6.35
2023-01-09T04:11:01.032Z,6.40
2023-01-09T04:12:02.642Z,6.30
2023-01-09T04:13:04.222Z,6.35
2023-01-09T04:14:06.035Z,6.34
2023-01-09T04:15:08.198Z,6.32
2023-01-09T04:16:11.049Z,6.35
2023-01-09T04:17:12.708Z,6.31
2023-01-09T04:18:14.889Z,6.32
2023-01-09T04:19:16.616Z,6.31
2023-01-09T04:20:18.495Z,6.26
2023-01-09T04:21:20.385Z,6.32
2023-01-09T04:22:22.315Z,6.29
2023-01-09T04:23:24.124Z,6.25
2023-01-09T04:24:25.871Z,6.25
2023-01-09T04:25:27.978Z,6.30
2023-01-09T04:26:30.040Z,6.38
2023-01-09T04:27:32.185Z,6.38
2023-01-09T04:28:33.959Z,6.42
2023-01-09T04:29:35.758Z,6.41
2023-01-09T04:30:37.936Z,6.37
2023-01-09T04:31:39.791Z,6.37
2023-01-09T04:32:41.838Z,6.42
2023-01-09T04:33:44.071Z,6.41
2023-01-09T04:34:45.674Z,6.40
2023-01-09T04:35:47.488Z,6.54
2023-01-09T04:36:49.110Z,6.53
2023-01-09T04:37:50.751Z,6.42
2023-01-09T04:38:52.690Z,6.53
2023-01-09T04:39:56.321Z,6.50
2023-01-09T04:40:58.416Z,6.32
2023-01-09T04:42:00.070Z,6.61
2023-01-09T04:43:01.848Z,6.45
2023-01-09T04:44:03.695Z,6.44
2023-01-09T04:45:06.643Z,6.30
2023-01-09T04:46:08.447Z,6.35
2023-01-09T04:47:10.341Z,6.33
2023-01-09T04:48:11.971Z,6.42
2023-01-09T04:49:13.747Z,6.58
2023-01-09T04:50:15.846Z,6.51
2023-01-09T04:51:18.707Z,6.55
2023-01-09T04:52:20.503Z,6.50
2023-01-09T04:53:22.356Z,6.49
2023-01-09T04:54:24.445Z,6.52
2023-01-09T04:55:26.965Z,6.53
2023-01-09T04:56:28.755Z,6.49
2023-01-09T04:57:30.525Z,6.51
2023-01-09T04:58:32.253Z,6.46
2023-01-09T04:59:34.178Z,6.46
2023-01-09T05:00:35.883Z,6.44
2023-01-09T05:01:37.924Z,6.38
2023-01-09T05:02:40.638Z,6.31
2023-01-09T05:03:42.373Z,6.28
2023-01-09T05:04:44.092Z,6.23
2023-01-09T05:05:45.907Z,6.17
2023-01-09T05:06:47.562Z,6.14
2023-01-09T05:07:49.653Z,6.10
2023-01-09T05:08:51.411Z,6.05
2023-01-09T05:09:53.129Z,6.05
2023-01-09T05:10:55.201Z,6.03
2023-01-09T05:11:57.229Z,6.05
2023-01-09T05:12:59.322Z,6.09
2023-01-09T05:14:01.135Z,6.10
2023-01-09T05:15:04.276Z,6.11
2023-01-09T05:16:06.272Z,6.17
2023-01-09T05:17:08.077Z,6.12
2023-01-09T05:18:10.528Z,6.03
2023-01-09T05:19:12.941Z,5.99
2023-01-09T05:20:14.756Z,5.97
2023-01-09T05:21:16.399Z,5.90
2023-01-09T05:22:21.147Z,5.92
2023-01-09T05:23:23.220Z,5.90
2023-01-09T05:24:24.952Z,5.86
2023-01-09T05:25:26.820Z,5.78
2023-01-09T05:26:28.721Z,5.74
2023-01-09T05:27:30.562Z,5.74
2023-01-09T05:28:32.847Z,5.69
2023-01-09T05:29:34.722Z,5.64
2023-01-09T05:30:36.548Z,5.78
2023-01-09T05:31:38.330Z,5.79
2023-01-09T05:32:40.253Z,5.76
2023-01-09T05:33:41.935Z,5.73
2023-01-09T05:34:43.970Z,5.77
2023-01-09T05:35:45.633Z,5.95
2023-01-09T05:36:47.396Z,5.96
2023-01-09T05:37:50.161Z,6.00
2023-01-09T05:38:52.140Z,6.00
2023-01-09T05:39:54.121Z,6.08
2023-01-09T05:40:55.953Z,6.02
2023-01-09T05:41:57.726Z,6.01
2023-01-09T05:43:02.419Z,6.08
2023-01-09T05:44:05.013Z,6.12
2023-01-09T05:45:07.252Z,6.15
2023-01-09T05:46:09.078Z,6.31
2023-01-09T05:47:10.745Z,6.37
2023-01-09T05:48:14.191Z,6.35
2023-01-09T05:49:18.405Z,6.32
2023-01-09T05:50:22.569Z,6.33
2023-01-09T05:51:24.636Z,6.46
2023-01-09T05:52:26.575Z,6.54
2023-01-09T05:53:28.388Z,6.57
2023-01-09T05:54:30.501Z,6.55
2023-01-09T05:55:32.939Z,6.57
2023-01-09T05:56:34.867Z,6.59
2023-01-09T05:57:36.850Z,6.64
2023-01-09T05:58:39.306Z,6.65
2023-01-09T05:59:40.992Z,6.68
2023-01-09T06:00:42.742Z,6.85
2023-01-09T06:01:44.659Z,6.89
2023-01-09T06:02:46.714Z,6.73
2023-01-09T06:03:48.433Z,6.86
2023-01-09T06:04:50.163Z,6.83
2023-01-09T06:05:51.850Z,6.87
2023-01-09T06:06:53.769Z,6.85
2023-01-09T06:07:55.605Z,6.83
2023-01-09T06:08:58.131Z,6.76
2023-01-09T06:09:59.904Z,6.80
2023-01-09T06:11:02.203Z,6.73
2023-01-09T06:12:04.175Z,6.86
2023-01-09T06:13:06.032Z,6.89
2023-01-09T06:14:07.880Z,6.92
2023-01-09T06:15:10.140Z,6.90
2023-01-09T06:16:13.966Z,6.94
2023-01-09T06:17:15.966Z,7.08
2023-01-09T06:18:18.084Z,7.20
2023-01-09T06:19:19.765Z,7.19
2023-01-09T06:20:21.481Z,7.17
2023-01-09T06:21:24.048Z,7.24
2023-01-09T06:22:25.931Z,7.25
2023-01-09T06:23:27.811Z,7.32
2023-01-09T06:24:29.679Z,7.34
2023-01-09T06:25:31.746Z,7.46
2023-01-09T06:26:33.575Z,7.60
2023-01-09T06:27:35.783Z,7.56
2023-01-09T06:28:37.771Z,7.54
2023-01-09T06:29:39.933Z,7.46
2023-01-09T06:30:41.668Z,7.49
2023-01-09T06:31:45.610Z,7.50
2023-01-09T06:32:50.707Z,7.49
2023-01-09T06:33:53.594Z,7.49
2023-01-09T06:34:55.210Z,7.48
2023-01-09T06:35:56.814Z,7.46
2023-01-09T06:36:58.431Z,7.58
2023-01-09T06:38:02.097Z,7.62
2023-01-09T06:39:04.053Z,7.58
2023-01-09T06:40:06.587Z,7.67
2023-01-09T06:41:08.458Z,7.74
2023-01-09T06:42:10.281Z,7.79
2023-01-09T06:43:14.054Z,7.73
2023-01-09T06:44:16.169Z,7.77
2023-01-09T06:45:18.148Z,7.77
2023-01-09T06:46:20.167Z,7.77
2023-01-09T06:47:21.992Z,7.80
2023-01-09T06:48:25.136Z,7.84
2023-01-09T06:49:26.959Z,7.80
2023-01-09T06:50:28.727Z,7.79
2023-01-09T06:51:30.481Z,7.77
2023-01-09T06:52:32.096Z,7.86
2023-01-09T06:53:35.086Z,7.90
2023-01-09T06:54:37.574Z,7.92
2023-01-09T06:55:39.218Z,7.94
2023-01-09T06:56:41.162Z,7.96
2023-01-09T06:57:42.886Z,7.96
2023-01-09T06:58:51.625Z,7.92
2023-01-09T06:59:53.840Z,7.87
2023-01-09T07:00:56.655Z,7.87
2023-01-09T07:01:58.753Z,7.82
2023-01-09T07:03:01.083Z,7.71
2023-01-09T07:04:05.419Z,7.76
2023-01-09T07:05:08.655Z,7.87
2023-01-09T07:06:10.305Z,7.88
2023-01-09T07:07:12.574Z,7.94
2023-01-09T07:08:15.452Z,7.87
2023-01-09T07:09:18.123Z,7.95
2023-01-09T07:10:20.188Z,7.86
2023-01-09T07:11:22.026Z,7.93
2023-01-09T07:12:24.722Z,7.91
2023-01-09T07:13:26.792Z,7.87
2023-01-09T07:14:28.558Z,7.82
2023-01-09T07:15:31.438Z,7.80
2023-01-09T07:16:33.819Z,7.83
2023-01-09T07:17:35.585Z,7.79
2023-01-09T07:18:37.629Z,7.77
2023-01-09T07:19:42.104Z,7.85
2023-01-09T07:20:43.775Z,7.86
2023-01-09T07:21:45.978Z,7.76
2023-01-09T07:22:48.106Z,7.86
2023-01-09T07:23:51.776Z,7.96
2023-01-09T07:24:54.936Z,8.06
2023-01-09T07:25:58.055Z,8.04
2023-01-09T07:26:59.943Z,8.10
2023-01-09T07:28:03.024Z,8.04
2023-01-09T07:29:05.314Z,8.14
2023-01-09T07:30:08.053Z,8.20
2023-01-09T07:31:09.940Z,8.17
2023-01-09T07:32:11.768Z,8.17
2023-01-09T07:33:13.714Z,8.17
2023-01-09T07:34:15.562Z,8.21
2023-01-09T07:35:17.258Z,8.22
2023-01-09T07:36:19.319Z,8.17
2023-01-09T07:37:21.761Z,8.12
2023-01-09T07:38:23.415Z,8.19
2023-01-09T07:39:25.224Z,8.16
2023-01-09T07:40:27.310Z,8.19
2023-01-09T07:41:29.053Z,8.15
2023-01-09T07:42:30.891Z,8.08
2023-01-09T07:43:34.884Z,8.02
2023-01-09T07:44:36.594Z,7.99
2023-01-09T07:45:38.308Z,8.02
2023-01-09T07:46:40.335Z,8.14
2023-01-09T07:47:42.506Z,8.20
2023-01-09T07:48:44.161Z,8.23
2023-01-09T07:49:45.793Z,8.19
2023-01-09T07:50:47.873Z,8.26
2023-01-09T07:51:49.688Z,8.28
2023-01-09T07:52:51.533Z,8.25
2023-01-09T07:53:53.486Z,8.26
2023-01-09T07:54:56.503Z,8.29
2023-01-09T07:55:58.628Z,8.31
2023-01-09T07:57:00.377Z,8.32
2023-01-09T07:58:02.858Z,8.33
2023-01-09T07:59:04.800Z,8.32
2023-01-09T08:00:10.925Z,8.36
2023-01-09T08:01:12.786Z,8.38
2023-01-09T08:02:14.630Z,8.34
2023-01-09T08:03:16.690Z,8.34
2023-01-09T08:04:18.562Z,8.39
2023-01-09T08:05:21.042Z,8.38
2023-01-09T08:06:22.720Z,8.41
2023-01-09T08:07:25.700Z,8.35
2023-01-09T08:08:29.151Z,8.36
2023-01-09T08:09:31.201Z,8.38
2023-01-09T08:10:33.010Z,8.35
2023-01-09T08:11:34.910Z,8.32
2023-01-09T08:12:36.743Z,8.32
2023-01-09T08:13:38.499Z,8.35
2023-01-09T08:14:40.208Z,8.35
2023-01-09T08:15:42.008Z,8.35
2023-01-09T08:16:44.171Z,8.33
2023-01-09T08:17:47.284Z,8.38
2023-01-09T08:19:07.147Z,8.41
2023-01-09T08:20:14.504Z,8.48
2023-01-09T08:21:16.291Z,8.50
2023-01-09T08:22:17.984Z,8.53
2023-01-09T08:23:19.688Z,8.58
2023-01-09T08:24:21.437Z,8.51
2023-01-09T08:25:27.113Z,8.57
2023-01-09T08:26:28.926Z,8.64
2023-01-09T08:27:30.546Z,8.86
2023-01-09T08:28:32.659Z,9.08
2023-01-09T08:29:34.695Z,9.39
2023-01-09T08:30:37.340Z,9.63
2023-01-09T08:31:39.197Z,9.99
2023-01-09T08:32:41.430Z,10.41
2023-01-09T08:33:43.878Z,10.59
2023-01-09T08:34:45.585Z,10.61
2023-01-09T08:35:47.819Z,10.40
2023-01-09T08:36:49.604Z,10.41
2023-01-09T08:37:51.666Z,10.64
2023-01-09T08:38:53.636Z,10.72
2023-01-09T08:39:56.534Z,10.66
2023-01-09T08:40:58.257Z,10.94
2023-01-09T08:42:18.862Z,11.06
2023-01-09T08:43:39.125Z,10.98
2023-01-09T08:44:59.596Z,11.19
2023-01-09T08:46:20.596Z,11.09
2023-01-09T08:47:24.193Z,11.04
2023-01-09T08:48:27.219Z,11.39
2023-01-09T08:49:31.889Z,11.80
2023-01-09T08:50:34.085Z,11.82
2023-01-09T08:51:38.226Z,11.87
2023-01-09T08:52:40.317Z,12.21
2023-01-09T08:53:41.982Z,12.10
2023-01-09T08:54:43.659Z,11.81
2023-01-09T08:55:45.346Z,11.55
2023-01-09T08:56:47.724Z,11.67
2023-01-09T08:57:54.466Z,12.12
2023-01-09T08:58:56.374Z,12.62
2023-01-09T08:59:58.147Z,12.67
2023-01-09T09:00:59.784Z,12.26
2023-01-09T09:02:01.564Z,12.41
2023-01-09T09:03:03.538Z,12.92
2023-01-09T09:04:06.188Z,12.83
2023-01-09T09:05:08.517Z,12.75
2023-01-09T09:06:11.066Z,12.73
2023-01-09T09:07:12.823Z,12.44
2023-01-09T09:08:15.991Z,12.41
2023-01-09T09:09:17.716Z,13.01
2023-01-09T09:10:19.656Z,12.95
2023-01-09T09:11:21.626Z,12.34
2023-01-09T09:12:23.245Z,12.56
2023-01-09T09:13:25.105Z,12.43
2023-01-09T09:14:45.504Z,12.07
2023-01-09T09:15:47.301Z,12.39
2023-01-09T09:16:49.972Z,12.54
2023-01-09T09:18:00.843Z,13.01
2023-01-09T09:19:02.524Z,13.59
2023-01-09T09:20:04.865Z,12.75
2023-01-09T09:21:06.533Z,13.30
2023-01-09T09:22:08.983Z,13.64
2023-01-09T09:23:10.668Z,13.78
2023-01-09T09:24:12.352Z,13.38
2023-01-09T09:25:15.276Z,13.78
2023-01-09T09:26:16.924Z,14.41
2023-01-09T09:27:18.870Z,14.60
2023-01-09T09:28:21.420Z,14.48
2023-01-09T09:29:23.115Z,14.89
2023-01-09T09:30:27.922Z,15.52
2023-01-09T09:31:32.642Z,15.70
2023-01-09T09:32:34.486Z,14.63
2023-01-09T09:33:36.267Z,15.06
2023-01-09T09:34:38.522Z,14.97
2023-01-09T09:35:40.396Z,15.32
2023-01-09T09:36:42.071Z,15.21
2023-01-09T09:37:54.085Z,14.91
2023-01-09T09:38:56.301Z,15.30
2023-01-09T09:40:01.480Z,15.35
2023-01-09T09:42:09.437Z,14.66
2023-01-09T09:43:38.781Z,14.31
2023-01-09T09:45:00.739Z,13.56
2023-01-09T09:46:22.398Z,14.30
2023-01-09T09:47:43.421Z,14.56
2023-01-09T09:48:51.521Z,13.79
2023-01-09T09:50:03.749Z,12.78
2023-01-09T09:51:20.752Z,13.07
2023-01-09T09:52:39.231Z,13.02
2023-01-09T09:54:06.450Z,13.12
2023-01-09T09:55:24.373Z,13.44
2023-01-09T09:56:27.792Z,13.90
2023-01-09T09:57:36.407Z,14.36
2023-01-09T09:58:45.559Z,13.93
2023-01-09T09:59:51.263Z,13.84
2023-01-09T10:00:54.395Z,14.18
2023-01-09T10:02:20.564Z,13.69
2023-01-09T10:03:34.293Z,13.85
2023-01-09T10:04:43.238Z,14.93
2023-01-09T10:05:48.916Z,16.11
2023-01-09T10:06:56.983Z,15.71
2023-01-09T10:08:15.350Z,16.57
2023-01-09T10:09:18.143Z,17.24
2023-01-09T10:10:32.680Z,17.81
2023-01-09T10:11:49.213Z,16.73
2023-01-09T10:12:55.243Z,15.50
2023-01-09T10:14:13.062Z,16.03
2023-01-09T10:15:46.263Z,16.74
2023-01-09T10:16:57.504Z,15.63
2023-01-09T10:18:11.252Z,15.56
2023-01-09T10:19:35.749Z,15.81
2023-01-09T10:20:49.551Z,14.99
2023-01-09T10:22:09.171Z,14.47
2023-01-09T10:23:28.831Z,15.16
2023-01-09T10:24:52.273Z,15.77
2023-01-09T10:26:00.689Z,15.82
2023-01-09T10:27:24.162Z,14.97
2023-01-09T10:28:44.396Z,15.64
2023-01-09T10:30:13.581Z,15.36
2023-01-09T10:31:27.854Z,15.84
2023-01-09T10:32:47.610Z,15.28
2023-01-09T10:33:55.567Z,15.02
2023-01-09T10:35:07.339Z,15.35
2023-01-09T10:36:33.648Z,14.95
2023-01-09T10:37:53.779Z,15.42
2023-01-09T10:38:58.258Z,15.24
2023-01-09T10:40:14.437Z,14.82
2023-01-09T10:41:24.994Z,15.08
2023-01-09T10:42:33.522Z,15.47
2023-01-09T10:43:41.909Z,16.41
2023-01-09T10:44:53.405Z,16.29
2023-01-09T10:46:01.709Z,16.59
2023-01-09T10:47:11.647Z,15.64
2023-01-09T10:48:37.726Z,15.89
2023-01-09T10:49:40.061Z,15.04
2023-01-09T10:50:46.884Z,14.98
2023-01-09T10:52:07.370Z,14.74
2023-01-09T10:53:25.502Z,15.72
2023-01-09T10:54:29.817Z,16.14
2023-01-09T10:55:41.465Z,16.47
2023-01-09T10:56:47.926Z,16.18
2023-01-09T10:57:56.115Z,14.31
2023-01-09T10:58:58.111Z,14.44
2023-01-09T10:59:59.945Z,13.73
2023-01-09T11:01:03.267Z,13.75
2023-01-09T11:02:05.146Z,13.92
2023-01-09T11:03:14.777Z,14.24
2023-01-09T11:04:48.774Z,14.32
2023-01-09T11:05:52.471Z,13.23
2023-01-09T11:07:12.451Z,12.82
2023-01-09T11:08:28.472Z,12.93
2023-01-09T11:09:55.936Z,13.79
2023-01-09T11:11:01.097Z,13.65
2023-01-09T11:12:23.739Z,13.01
2023-01-09T11:13:38.529Z,12.68
2023-01-09T11:14:40.302Z,12.56
2023-01-09T11:15:42.144Z,11.94
2023-01-09T11:16:58.693Z,12.12
2023-01-09T11:18:30.215Z,12.89
2023-01-09T11:19:33.655Z,13.31
2023-01-09T11:20:35.430Z,13.74
2023-01-09T11:21:40.628Z,14.00
2023-01-09T11:22:56.635Z,13.06
2023-01-09T11:24:26.654Z,13.58
2023-01-09T11:25:29.261Z,12.53
2023-01-09T11:26:33.054Z,12.24
2023-01-09T11:27:34.785Z,12.39
2023-01-09T11:28:36.444Z,12.19
2023-01-09T11:29:38.447Z,11.93
2023-01-09T11:31:03.605Z,11.45
2023-01-09T11:32:05.830Z,10.95
2023-01-09T11:33:18.318Z,11.02
2023-01-09T11:34:24.080Z,10.94
2023-01-09T11:35:34.215Z,10.69
2023-01-09T11:36:36.429Z,10.37
2023-01-09T11:37:38.231Z,10.22
2023-01-09T11:38:57.763Z,10.12
2023-01-09T11:40:01.422Z,9.95
2023-01-09T11:41:05.093Z,10.17
2023-01-09T11:42:46.078Z,9.91
2023-01-09T11:43:54.432Z,9.44
2023-01-09T11:44:59.164Z,9.39
2023-01-09T11:46:04.612Z,9.23
2023-01-09T11:47:26.764Z,9.16
2023-01-09T11:48:33.991Z,9.09
2023-01-09T11:49:35.863Z,9.26
2023-01-09T11:50:37.638Z,9.21
2023-01-09T11:51:39.381Z,9.01
2023-01-09T11:52:41.101Z,8.91
2023-01-09T11:53:58.273Z,8.89
2023-01-09T11:55:05.084Z,8.72
2023-01-09T11:56:09.806Z,8.63
2023-01-09T11:57:12.679Z,8.66
2023-01-09T11:58:17.940Z,8.47
2023-01-09T11:59:24.900Z,8.71
2023-01-09T12:00:29.673Z,8.99
2023-01-09T12:02:02.065Z,9.69
2023-01-09T12:03:16.622Z,10.02
2023-01-09T12:04:34.379Z,9.81
2023-01-09T12:05:57.700Z,9.65
2023-01-09T12:07:14.500Z,9.37
2023-01-09T12:08:33.625Z,9.00
2023-01-09T12:09:56.653Z,8.78
2023-01-09T12:11:20.993Z,8.48
2023-01-09T12:12:36.572Z,8.16
2023-01-09T12:13:56.625Z,8.14
2023-01-09T12:15:17.663Z,8.08
2023-01-09T12:16:38.020Z,8.07
2023-01-09T12:17:53.948Z,8.08
2023-01-09T12:19:38.233Z,8.11
2023-01-09T12:21:02.841Z,7.91
2023-01-09T12:22:22.504Z,7.95
2023-01-09T12:23:51.231Z,8.07
2023-01-09T12:25:23.790Z,8.43
2023-01-09T12:26:39.385Z,8.72
2023-01-09T12:28:02.624Z,8.74
2023-01-09T12:29:25.782Z,8.40
2023-01-09T12:30:56.120Z,8.26
2023-01-09T12:32:03.582Z,8.30
2023-01-09T12:33:33.940Z,8.22
2023-01-09T12:34:54.509Z,8.10
2023-01-09T12:36:18.609Z,7.98
2023-01-09T12:37:37.458Z,8.06
2023-01-09T12:38:55.664Z,8.04
2023-01-09T12:40:16.262Z,7.98
2023-01-09T12:41:35.469Z,7.88
2023-01-09T12:42:46.153Z,7.83
2023-01-09T12:44:03.233Z,7.71
2023-01-09T12:45:36.519Z,7.59
2023-01-09T12:46:53.865Z,7.35
2023-01-09T12:48:07.991Z,7.19
2023-01-09T12:49:28.544Z,7.16
2023-01-09T12:51:30.963Z,7.02
2023-01-09T12:52:43.728Z,6.96
2023-01-09T12:54:35.357Z,6.97
2023-01-09T12:55:42.861Z,6.92
2023-01-09T12:57:00.811Z,6.85
2023-01-09T12:58:21.858Z,6.78
2023-01-09T12:59:45.070Z,6.72
2023-01-09T13:00:52.529Z,6.64
2023-01-09T13:01:56.727Z,6.69
2023-01-09T13:03:15.416Z,6.72
2023-01-09T13:04:22.029Z,6.67
2023-01-09T13:05:31.257Z,6.73
2023-01-09T13:06:35.545Z,6.93
2023-01-09T13:07:46.790Z,7.20
2023-01-09T13:09:02.546Z,7.39
2023-01-09T13:10:19.570Z,7.59
2023-01-09T13:11:32.237Z,7.74
2023-01-09T13:12:39.151Z,7.68
2023-01-09T13:13:55.910Z,7.76
2023-01-09T13:14:57.586Z,7.65
2023-01-09T13:16:04.438Z,7.63
2023-01-09T13:17:16.079Z,7.44
2023-01-09T13:18:42.656Z,7.38
2023-01-09T13:19:46.218Z,7.43
2023-01-09T13:20:54.038Z,7.28
2023-01-09T13:21:58.063Z,7.21
2023-01-09T13:23:02.551Z,7.12
2023-01-09T13:24:15.932Z,7.12
2023-01-09T13:25:41.099Z,7.07
2023-01-09T13:26:46.921Z,7.08
2023-01-09T13:27:58.237Z,7.07
2023-01-09T13:29:19.797Z,7.01
2023-01-09T13:30:29.553Z,7.03
2023-01-09T13:31:43.493Z,7.17
2023-01-09T13:33:12.584Z,7.31
2023-01-09T13:34:22.530Z,7.40
2023-01-09T13:35:24.772Z,7.47
2023-01-09T13:36:35.558Z,7.51
2023-01-09T13:37:37.567Z,7.54
2023-01-09T13:38:39.376Z,7.51
2023-01-09T13:39:41.540Z,7.50
2023-01-09T13:40:45.908Z,7.50
2023-01-09T13:42:10.840Z,7.36
2023-01-09T13:43:14.938Z,7.43
2023-01-09T13:44:29.079Z,7.58
2023-01-09T13:45:34.358Z,7.44
2023-01-09T13:46:43.587Z,7.40
2023-01-09T13:47:45.348Z,7.30
2023-01-09T13:48:47.418Z,7.28
2023-01-09T13:49:49.082Z,7.26
2023-01-09T13:50:51.452Z,7.28
2023-01-09T13:51:58.781Z,7.24
2023-01-09T13:53:25.426Z,7.21
2023-01-09T13:54:53.555Z,7.26
2023-01-09T13:55:58.582Z,7.25
2023-01-09T13:57:17.150Z,7.32
2023-01-09T13:58:22.794Z,7.38
2023-01-09T13:59:28.489Z,7.40
2023-01-09T14:00:36.359Z,7.45
2023-01-09T14:01:43.909Z,7.45
2023-01-09T14:02:46.910Z,7.63
2023-01-09T14:04:14.032Z,7.91
2023-01-09T14:05:25.925Z,8.22
2023-01-09T14:06:28.232Z,8.36
2023-01-09T14:07:32.424Z,8.49
2023-01-09T14:08:35.606Z,8.49
2023-01-09T14:09:38.001Z,8.51
2023-01-09T14:10:48.992Z,8.16
2023-01-09T14:12:04.506Z,8.09
2023-01-09T14:13:18.695Z,7.77
2023-01-09T14:14:30.642Z,7.83
2023-01-09T14:15:39.512Z,7.89
2023-01-09T14:16:41.724Z,7.75
2023-01-09T14:17:43.778Z,7.65
2023-01-09T14:18:52.627Z,7.66
2023-01-09T14:19:57.454Z,7.54
2023-01-09T14:21:05.115Z,7.55
2023-01-09T14:22:08.046Z,7.57
2023-01-09T14:23:42.338Z,7.39
2023-01-09T14:24:47.276Z,7.35
2023-01-09T14:25:50.904Z,7.51
2023-01-09T14:26:57.456Z,7.65
2023-01-09T14:28:03.501Z,7.62
2023-01-09T14:29:36.213Z,7.72
2023-01-09T14:30:58.372Z,7.53
2023-01-09T14:32:28.661Z,7.51
2023-01-09T14:33:32.702Z,7.42
2023-01-09T14:34:39.055Z,7.38
2023-01-09T14:36:21.651Z,7.42
2023-01-09T14:37:27.946Z,7.40
2023-01-09T14:38:34.686Z,7.41
2023-01-09T14:39:37.525Z,7.28
2023-01-09T14:40:48.052Z,7.30
2023-01-09T14:42:06.594Z,7.24
2023-01-09T14:43:44.292Z,7.05
2023-01-09T14:44:51.154Z,6.84
2023-01-09T14:45:57.987Z,6.73
2023-01-09T14:47:07.340Z,6.52
2023-01-09T14:48:12.740Z,6.51